sensor_id;sensor_type;location;lat;lon;timestamp;P1;durP1;ratioP1;P2;durP2;ratioP2
56657;SDS011;42530;52.240;19.354;2022-12-07T00:00:48;33.83;;;28.95;;
56657;SDS011;42530;52.240;19.354;2022-12-07T00:03:14;28.15;;;25.23;;
56657;SDS011;42530;52.240;19.354;2022-12-07T00:05:39;33.00;;;29.17;;
56657;SDS011;42530;52.240;19.354;2022-12-07T00:08:05;31.25;;;27.45;;
56657;SDS011;42530;52.240;19.354;2022-12-07T00:10:32;38.33;;;30.25;;
56657;SDS011;42530;52.240;19.354;2022-12-07T00:12:58;30.83;;;26.95;;
56657;SDS011;42530;52.240;19.354;2022-12-07T00:15:24;28.45;;;25.42;;
56657;SDS011;42530;52.240;19.354;2022-12-07T00:17:49;28.60;;;25.70;;
56657;SDS011;42530;52.240;19.354;2022-12-07T00:20:15;30.30;;;26.92;;
56657;SDS011;42530;52.240;19.354;2022-12-07T00:22:40;31.23;;;27.95;;
56657;SDS011;42530;52.240;19.354;2022-12-07T00:25:06;30.65;;;24.75;;
56657;SDS011;42530;52.240;19.354;2022-12-07T00:27:31;27.92;;;25.25;;
56657;SDS011;42530;52.240;19.354;2022-12-07T00:29:57;28.25;;;25.17;;
56657;SDS011;42530;52.240;19.354;2022-12-07T00:32:23;29.13;;;26.23;;
56657;SDS011;42530;52.240;19.354;2022-12-07T00:34:48;26.40;;;24.00;;
56657;SDS011;42530;52.240;19.354;2022-12-07T00:37:14;25.60;;;22.95;;
56657;SDS011;42530;52.240;19.354;2022-12-07T00:39:39;25.77;;;23.02;;
56657;SDS011;42530;52.240;19.354;2022-12-07T00:42:05;27.58;;;24.67;;
56657;SDS011;42530;52.240;19.354;2022-12-07T00:44:30;29.40;;;26.42;;
56657;SDS011;42530;52.240;19.354;2022-12-07T00:46:56;31.42;;;28.05;;
56657;SDS011;42530;52.240;19.354;2022-12-07T00:49:21;28.02;;;25.15;;
56657;SDS011;42530;52.240;19.354;2022-12-07T00:51:50;28.63;;;24.92;;
56657;SDS011;42530;52.240;19.354;2022-12-07T00:54:16;28.38;;;25.35;;
56657;SDS011;42530;52.240;19.354;2022-12-07T00:56:41;26.60;;;22.65;;
56657;SDS011;42530;52.240;19.354;2022-12-07T00:59:07;22.70;;;19.95;;
56657;SDS011;42530;52.240;19.354;2022-12-07T01:01:33;23.45;;;21.13;;
56657;SDS011;42530;52.240;19.354;2022-12-07T01:04:01;26.55;;;23.85;;
56657;SDS011;42530;52.240;19.354;2022-12-07T01:06:27;25.00;;;22.60;;
56657;SDS011;42530;52.240;19.354;2022-12-07T01:08:52;25.25;;;22.45;;
56657;SDS011;42530;52.240;19.354;2022-12-07T01:11:19;27.25;;;24.38;;
56657;SDS011;42530;52.240;19.354;2022-12-07T01:13:48;28.25;;;22.48;;
56657;SDS011;42530;52.240;19.354;2022-12-07T01:16:15;25.92;;;23.15;;
56657;SDS011;42530;52.240;19.354;2022-12-07T01:18:42;26.92;;;24.10;;
56657;SDS011;42530;52.240;19.354;2022-12-07T01:21:20;27.13;;;24.40;;
56657;SDS011;42530;52.240;19.354;2022-12-07T01:23:47;31.05;;;27.77;;
56657;SDS011;42530;52.240;19.354;2022-12-07T01:26:14;30.48;;;27.38;;
56657;SDS011;42530;52.240;19.354;2022-12-07T01:28:41;33.70;;;28.95;;
56657;SDS011;42530;52.240;19.354;2022-12-07T01:31:11;35.10;;;29.08;;
56657;SDS011;42530;52.240;19.354;2022-12-07T01:33:40;32.10;;;28.80;;
56657;SDS011;42530;52.240;19.354;2022-12-07T01:36:08;34.50;;;30.92;;
56657;SDS011;42530;52.240;19.354;2022-12-07T01:38:41;31.83;;;28.52;;
56657;SDS011;42530;52.240;19.354;2022-12-07T01:41:07;29.17;;;24.80;;
56657;SDS011;42530;52.240;19.354;2022-12-07T01:43:33;27.67;;;24.83;;
56657;SDS011;42530;52.240;19.354;2022-12-07T01:46:00;28.63;;;25.70;;
56657;SDS011;42530;52.240;19.354;2022-12-07T01:48:29;25.85;;;23.08;;
56657;SDS011;42530;52.240;19.354;2022-12-07T01:51:00;27.83;;;24.90;;
56657;SDS011;42530;52.240;19.354;2022-12-07T01:53:29;26.35;;;23.25;;
56657;SDS011;42530;52.240;19.354;2022-12-07T01:55:57;25.80;;;22.95;;
56657;SDS011;42530;52.240;19.354;2022-12-07T01:58:24;26.15;;;23.50;;
56657;SDS011;42530;52.240;19.354;2022-12-07T02:00:50;24.63;;;22.17;;
56657;SDS011;42530;52.240;19.354;2022-12-07T02:03:23;29.98;;;26.38;;
56657;SDS011;42530;52.240;19.354;2022-12-07T02:05:56;26.48;;;23.48;;
56657;SDS011;42530;52.240;19.354;2022-12-07T02:08:24;28.30;;;22.80;;
56657;SDS011;42530;52.240;19.354;2022-12-07T02:10:50;29.55;;;24.75;;
56657;SDS011;42530;52.240;19.354;2022-12-07T02:13:19;26.65;;;24.10;;
56657;SDS011;42530;52.240;19.354;2022-12-07T02:15:52;30.35;;;26.60;;
56657;SDS011;42530;52.240;19.354;2022-12-07T02:27:07;25.42;;;23.02;;
56657;SDS011;42530;52.240;19.354;2022-12-07T02:29:55;24.52;;;20.88;;
56657;SDS011;42530;52.240;19.354;2022-12-07T02:32:27;27.38;;;24.65;;
56657;SDS011;42530;52.240;19.354;2022-12-07T02:35:26;26.92;;;24.13;;
56657;SDS011;42530;52.240;19.354;2022-12-07T02:38:02;31.88;;;26.73;;
56657;SDS011;42530;52.240;19.354;2022-12-07T02:43:25;28.70;;;25.80;;
56657;SDS011;42530;52.240;19.354;2022-12-07T02:45:54;27.17;;;24.52;;
56657;SDS011;42530;52.240;19.354;2022-12-07T02:48:23;24.55;;;22.08;;
56657;SDS011;42530;52.240;19.354;2022-12-07T02:50:52;26.00;;;23.42;;
56657;SDS011;42530;52.240;19.354;2022-12-07T02:53:28;22.27;;;20.10;;
56657;SDS011;42530;52.240;19.354;2022-12-07T02:55:54;23.52;;;21.17;;
56657;SDS011;42530;52.240;19.354;2022-12-07T02:58:30;24.02;;;21.52;;
56657;SDS011;42530;52.240;19.354;2022-12-07T03:01:08;20.42;;;18.52;;
56657;SDS011;42530;52.240;19.354;2022-12-07T03:03:56;20.70;;;18.52;;
56657;SDS011;42530;52.240;19.354;2022-12-07T03:06:31;19.33;;;17.35;;
56657;SDS011;42530;52.240;19.354;2022-12-07T03:09:27;19.95;;;18.02;;
56657;SDS011;42530;52.240;19.354;2022-12-07T03:12:00;19.67;;;17.92;;
56657;SDS011;42530;52.240;19.354;2022-12-07T03:14:36;19.95;;;17.08;;
56657;SDS011;42530;52.240;19.354;2022-12-07T03:17:14;19.85;;;18.02;;
56657;SDS011;42530;52.240;19.354;2022-12-07T03:19:43;19.92;;;18.02;;
56657;SDS011;42530;52.240;19.354;2022-12-07T03:22:12;20.25;;;18.45;;
56657;SDS011;42530;52.240;19.354;2022-12-07T03:24:43;18.85;;;17.02;;
56657;SDS011;42530;52.240;19.354;2022-12-07T03:30:24;18.75;;;17.05;;
56657;SDS011;42530;52.240;19.354;2022-12-07T03:32:45;19.65;;;17.67;;
56657;SDS011;42530;52.240;19.354;2022-12-07T03:37:57;18.10;;;16.50;;
56657;SDS011;42530;52.240;19.354;2022-12-07T03:43:05;14.73;;;13.50;;
56657;SDS011;42530;52.240;19.354;2022-12-07T03:45:32;12.38;;;11.18;;
56657;SDS011;42530;52.240;19.354;2022-12-07T03:48:20;13.95;;;12.50;;
56657;SDS011;42530;52.240;19.354;2022-12-07T03:50:52;17.75;;;16.10;;
56657;SDS011;42530;52.240;19.354;2022-12-07T03:53:25;14.20;;;12.90;;
56657;SDS011;42530;52.240;19.354;2022-12-07T03:55:59;20.23;;;18.25;;
56657;SDS011;42530;52.240;19.354;2022-12-07T03:58:27;15.38;;;13.93;;
56657;SDS011;42530;52.240;19.354;2022-12-07T04:00:53;14.18;;;13.05;;
56657;SDS011;42530;52.240;19.354;2022-12-07T04:03:19;11.32;;;10.35;;
56657;SDS011;42530;52.240;19.354;2022-12-07T04:05:44;12.02;;;11.07;;
56657;SDS011;42530;52.240;19.354;2022-12-07T04:08:10;12.75;;;11.40;;
56657;SDS011;42530;52.240;19.354;2022-12-07T04:10:36;11.18;;;10.18;;
56657;SDS011;42530;52.240;19.354;2022-12-07T04:13:02;13.30;;;12.10;;
56657;SDS011;42530;52.240;19.354;2022-12-07T04:15:27;12.70;;;10.98;;
56657;SDS011;42530;52.240;19.354;2022-12-07T04:17:53;16.52;;;14.85;;
56657;SDS011;42530;52.240;19.354;2022-12-07T04:20:20;17.40;;;14.85;;
56657;SDS011;42530;52.240;19.354;2022-12-07T04:22:46;25.30;;;22.63;;
56657;SDS011;42530;52.240;19.354;2022-12-07T04:25:11;19.67;;;17.70;;
56657;SDS011;42530;52.240;19.354;2022-12-07T04:27:37;22.88;;;20.52;;
56657;SDS011;42530;52.240;19.354;2022-12-07T04:30:03;26.20;;;19.70;;
56657;SDS011;42530;52.240;19.354;2022-12-07T04:32:29;17.30;;;15.85;;
56657;SDS011;42530;52.240;19.354;2022-12-07T04:34:54;19.35;;;17.45;;
56657;SDS011;42530;52.240;19.354;2022-12-07T04:37:20;23.52;;;17.77;;
56657;SDS011;42530;52.240;19.354;2022-12-07T04:39:45;18.58;;;16.77;;
56657;SDS011;42530;52.240;19.354;2022-12-07T04:42:11;17.73;;;16.02;;
56657;SDS011;42530;52.240;19.354;2022-12-07T04:44:38;20.08;;;15.88;;
56657;SDS011;42530;52.240;19.354;2022-12-07T04:47:04;16.52;;;14.90;;
56657;SDS011;42530;52.240;19.354;2022-12-07T04:49:30;17.38;;;15.68;;
56657;SDS011;42530;52.240;19.354;2022-12-07T04:51:55;14.88;;;13.40;;
56657;SDS011;42530;52.240;19.354;2022-12-07T04:54:21;20.42;;;18.33;;
56657;SDS011;42530;52.240;19.354;2022-12-07T04:56:47;25.20;;;22.52;;
56657;SDS011;42530;52.240;19.354;2022-12-07T04:59:13;19.95;;;16.85;;
56657;SDS011;42530;52.240;19.354;2022-12-07T05:01:41;21.08;;;19.08;;
56657;SDS011;42530;52.240;19.354;2022-12-07T05:04:07;20.92;;;18.70;;
56657;SDS011;42530;52.240;19.354;2022-12-07T05:06:33;19.02;;;17.13;;
56657;SDS011;42530;52.240;19.354;2022-12-07T05:08:59;21.15;;;19.20;;
56657;SDS011;42530;52.240;19.354;2022-12-07T05:11:25;20.33;;;18.13;;
56657;SDS011;42530;52.240;19.354;2022-12-07T05:14:04;17.80;;;16.20;;
56657;SDS011;42530;52.240;19.354;2022-12-07T05:16:49;20.67;;;18.52;;
56657;SDS011;42530;52.240;19.354;2022-12-07T05:19:16;18.42;;;16.60;;
56657;SDS011;42530;52.240;19.354;2022-12-07T05:21:43;16.42;;;14.82;;
56657;SDS011;42530;52.240;19.354;2022-12-07T05:24:10;19.08;;;17.27;;
56657;SDS011;42530;52.240;19.354;2022-12-07T05:26:36;18.73;;;16.27;;
56657;SDS011;42530;52.240;19.354;2022-12-07T05:29:02;19.73;;;17.58;;
56657;SDS011;42530;52.240;19.354;2022-12-07T05:31:28;22.67;;;20.27;;
56657;SDS011;42530;52.240;19.354;2022-12-07T05:33:54;21.00;;;17.77;;
56657;SDS011;42530;52.240;19.354;2022-12-07T05:36:20;21.75;;;17.50;;
56657;SDS011;42530;52.240;19.354;2022-12-07T05:38:45;21.60;;;17.70;;
56657;SDS011;42530;52.240;19.354;2022-12-07T05:41:14;21.90;;;19.67;;
56657;SDS011;42530;52.240;19.354;2022-12-07T05:44:00;25.17;;;22.48;;
56657;SDS011;42530;52.240;19.354;2022-12-07T05:46:26;25.90;;;23.08;;
56657;SDS011;42530;52.240;19.354;2022-12-07T05:48:52;26.02;;;23.30;;
56657;SDS011;42530;52.240;19.354;2022-12-07T05:51:17;24.00;;;21.55;;
56657;SDS011;42530;52.240;19.354;2022-12-07T05:53:43;29.45;;;25.75;;
56657;SDS011;42530;52.240;19.354;2022-12-07T05:56:09;30.58;;;27.45;;
56657;SDS011;42530;52.240;19.354;2022-12-07T05:58:35;34.45;;;29.08;;
56657;SDS011;42530;52.240;19.354;2022-12-07T06:01:19;32.90;;;29.40;;
56657;SDS011;42530;52.240;19.354;2022-12-07T06:03:44;31.35;;;28.20;;
56657;SDS011;42530;52.240;19.354;2022-12-07T06:06:10;30.45;;;26.95;;
56657;SDS011;42530;52.240;19.354;2022-12-07T06:08:36;29.17;;;26.17;;
56657;SDS011;42530;52.240;19.354;2022-12-07T06:11:01;28.27;;;24.08;;
56657;SDS011;42530;52.240;19.354;2022-12-07T06:13:45;27.00;;;22.13;;
56657;SDS011;42530;52.240;19.354;2022-12-07T06:16:11;27.50;;;22.20;;
56657;SDS011;42530;52.240;19.354;2022-12-07T06:18:36;29.15;;;22.38;;
56657;SDS011;42530;52.240;19.354;2022-12-07T06:21:02;25.38;;;21.58;;
56657;SDS011;42530;52.240;19.354;2022-12-07T06:23:27;29.13;;;22.67;;
56657;SDS011;42530;52.240;19.354;2022-12-07T06:25:53;31.00;;;23.50;;
56657;SDS011;42530;52.240;19.354;2022-12-07T06:28:18;27.23;;;24.38;;
56657;SDS011;42530;52.240;19.354;2022-12-07T06:30:44;28.75;;;25.70;;
56657;SDS011;42530;52.240;19.354;2022-12-07T06:33:09;32.83;;;23.98;;
56657;SDS011;42530;52.240;19.354;2022-12-07T06:35:35;32.10;;;27.02;;
56657;SDS011;42530;52.240;19.354;2022-12-07T06:38:00;34.92;;;26.67;;
56657;SDS011;42530;52.240;19.354;2022-12-07T06:40:26;26.90;;;22.40;;
56657;SDS011;42530;52.240;19.354;2022-12-07T06:42:51;24.50;;;22.00;;
56657;SDS011;42530;52.240;19.354;2022-12-07T06:45:17;28.50;;;22.95;;
56657;SDS011;42530;52.240;19.354;2022-12-07T06:47:42;28.92;;;21.67;;
56657;SDS011;42530;52.240;19.354;2022-12-07T06:50:08;25.10;;;21.70;;
56657;SDS011;42530;52.240;19.354;2022-12-07T06:52:34;27.50;;;22.42;;
56657;SDS011;42530;52.240;19.354;2022-12-07T06:54:59;28.70;;;22.58;;
56657;SDS011;42530;52.240;19.354;2022-12-07T06:57:25;32.75;;;23.20;;
56657;SDS011;42530;52.240;19.354;2022-12-07T06:59:51;22.58;;;20.55;;
56657;SDS011;42530;52.240;19.354;2022-12-07T07:02:16;30.02;;;24.75;;
56657;SDS011;42530;52.240;19.354;2022-12-07T07:04:43;26.75;;;23.48;;
56657;SDS011;42530;52.240;19.354;2022-12-07T07:07:08;28.60;;;24.35;;
56657;SDS011;42530;52.240;19.354;2022-12-07T07:09:34;32.72;;;28.85;;
56657;SDS011;42530;52.240;19.354;2022-12-07T07:11:59;30.88;;;24.85;;
56657;SDS011;42530;52.240;19.354;2022-12-07T07:14:25;29.13;;;22.15;;
56657;SDS011;42530;52.240;19.354;2022-12-07T07:16:50;34.53;;;26.63;;
56657;SDS011;42530;52.240;19.354;2022-12-07T07:19:16;28.30;;;25.20;;
56657;SDS011;42530;52.240;19.354;2022-12-07T07:21:41;32.88;;;28.40;;
56657;SDS011;42530;52.240;19.354;2022-12-07T07:24:07;39.83;;;35.53;;
56657;SDS011;42530;52.240;19.354;2022-12-07T07:26:32;45.80;;;40.38;;
56657;SDS011;42530;52.240;19.354;2022-12-07T07:28:58;28.90;;;25.90;;
56657;SDS011;42530;52.240;19.354;2022-12-07T07:31:23;29.42;;;26.35;;
56657;SDS011;42530;52.240;19.354;2022-12-07T07:33:49;30.58;;;27.02;;
56657;SDS011;42530;52.240;19.354;2022-12-07T07:36:14;29.40;;;26.38;;
56657;SDS011;42530;52.240;19.354;2022-12-07T07:38:39;25.33;;;22.80;;
56657;SDS011;42530;52.240;19.354;2022-12-07T07:41:05;27.02;;;24.15;;
56657;SDS011;42530;52.240;19.354;2022-12-07T07:43:30;29.80;;;25.45;;
56657;SDS011;42530;52.240;19.354;2022-12-07T07:45:57;24.17;;;20.90;;
56657;SDS011;42530;52.240;19.354;2022-12-07T07:48:22;25.05;;;22.55;;
56657;SDS011;42530;52.240;19.354;2022-12-07T07:50:50;28.15;;;22.50;;
56657;SDS011;42530;52.240;19.354;2022-12-07T07:53:16;24.20;;;20.67;;
56657;SDS011;42530;52.240;19.354;2022-12-07T07:55:41;29.55;;;21.63;;
56657;SDS011;42530;52.240;19.354;2022-12-07T07:58:15;22.80;;;19.30;;
56657;SDS011;42530;52.240;19.354;2022-12-07T08:00:41;28.02;;;22.05;;
56657;SDS011;42530;52.240;19.354;2022-12-07T08:03:06;23.38;;;20.48;;
56657;SDS011;42530;52.240;19.354;2022-12-07T08:05:32;22.20;;;20.02;;
56657;SDS011;42530;52.240;19.354;2022-12-07T08:07:57;20.88;;;18.70;;
56657;SDS011;42530;52.240;19.354;2022-12-07T08:10:23;22.92;;;17.88;;
56657;SDS011;42530;52.240;19.354;2022-12-07T08:12:48;21.77;;;17.48;;
56657;SDS011;42530;52.240;19.354;2022-12-07T08:15:32;21.33;;;19.15;;
56657;SDS011;42530;52.240;19.354;2022-12-07T08:17:58;21.10;;;19.10;;
56657;SDS011;42530;52.240;19.354;2022-12-07T08:20:24;23.55;;;21.05;;
56657;SDS011;42530;52.240;19.354;2022-12-07T08:22:49;25.67;;;23.20;;
56657;SDS011;42530;52.240;19.354;2022-12-07T08:25:15;25.50;;;22.98;;
56657;SDS011;42530;52.240;19.354;2022-12-07T08:27:40;28.77;;;25.90;;
56657;SDS011;42530;52.240;19.354;2022-12-07T08:30:06;25.55;;;22.77;;
56657;SDS011;42530;52.240;19.354;2022-12-07T08:32:32;31.58;;;25.55;;
56657;SDS011;42530;52.240;19.354;2022-12-07T08:34:57;32.75;;;29.10;;
56657;SDS011;42530;52.240;19.354;2022-12-07T08:37:23;30.67;;;26.92;;
56657;SDS011;42530;52.240;19.354;2022-12-07T08:39:48;27.15;;;22.63;;
56657;SDS011;42530;52.240;19.354;2022-12-07T08:42:13;29.00;;;26.30;;
56657;SDS011;42530;52.240;19.354;2022-12-07T08:44:39;28.52;;;23.38;;
56657;SDS011;42530;52.240;19.354;2022-12-07T08:47:05;24.70;;;21.98;;
56657;SDS011;42530;52.240;19.354;2022-12-07T08:49:35;26.92;;;23.77;;
56657;SDS011;42530;52.240;19.354;2022-12-07T08:52:03;26.67;;;23.70;;
56657;SDS011;42530;52.240;19.354;2022-12-07T08:54:30;28.52;;;25.38;;
56657;SDS011;42530;52.240;19.354;2022-12-07T08:57:01;24.20;;;21.42;;
56657;SDS011;42530;52.240;19.354;2022-12-07T08:59:27;23.88;;;21.30;;
56657;SDS011;42530;52.240;19.354;2022-12-07T09:01:54;24.20;;;21.67;;
56657;SDS011;42530;52.240;19.354;2022-12-07T09:04:19;26.33;;;22.48;;
56657;SDS011;42530;52.240;19.354;2022-12-07T09:06:45;23.67;;;21.20;;
56657;SDS011;42530;52.240;19.354;2022-12-07T09:09:12;25.58;;;23.00;;
56657;SDS011;42530;52.240;19.354;2022-12-07T09:11:39;26.38;;;23.70;;
56657;SDS011;42530;52.240;19.354;2022-12-07T09:14:05;25.73;;;23.02;;
56657;SDS011;42530;52.240;19.354;2022-12-07T09:16:30;26.98;;;23.35;;
56657;SDS011;42530;52.240;19.354;2022-12-07T09:18:56;30.40;;;23.80;;
56657;SDS011;42530;52.240;19.354;2022-12-07T09:21:22;24.70;;;22.05;;
56657;SDS011;42530;52.240;19.354;2022-12-07T09:23:47;27.45;;;23.13;;
56657;SDS011;42530;52.240;19.354;2022-12-07T09:26:13;26.95;;;23.83;;
56657;SDS011;42530;52.240;19.354;2022-12-07T09:28:38;29.98;;;25.98;;
56657;SDS011;42530;52.240;19.354;2022-12-07T09:31:04;28.58;;;25.60;;
56657;SDS011;42530;52.240;19.354;2022-12-07T09:33:30;32.33;;;27.50;;
56657;SDS011;42530;52.240;19.354;2022-12-07T09:35:56;36.25;;;32.38;;
56657;SDS011;42530;52.240;19.354;2022-12-07T09:38:21;26.63;;;23.80;;
56657;SDS011;42530;52.240;19.354;2022-12-07T09:40:47;28.38;;;25.40;;
56657;SDS011;42530;52.240;19.354;2022-12-07T09:43:13;32.88;;;29.27;;
56657;SDS011;42530;52.240;19.354;2022-12-07T09:45:42;32.05;;;28.50;;
56657;SDS011;42530;52.240;19.354;2022-12-07T09:48:15;34.60;;;28.48;;
56657;SDS011;42530;52.240;19.354;2022-12-07T09:50:43;28.77;;;25.88;;
56657;SDS011;42530;52.240;19.354;2022-12-07T09:53:12;34.45;;;30.55;;
56657;SDS011;42530;52.240;19.354;2022-12-07T09:55:50;38.28;;;29.65;;
56657;SDS011;42530;52.240;19.354;2022-12-07T09:58:23;31.15;;;26.63;;
56657;SDS011;42530;52.240;19.354;2022-12-07T10:01:05;29.05;;;24.35;;
56657;SDS011;42530;52.240;19.354;2022-12-07T10:03:37;31.25;;;27.10;;
56657;SDS011;42530;52.240;19.354;2022-12-07T10:06:05;31.92;;;28.10;;
56657;SDS011;42530;52.240;19.354;2022-12-07T10:08:32;22.90;;;20.58;;
56657;SDS011;42530;52.240;19.354;2022-12-07T10:10:59;22.17;;;19.95;;
56657;SDS011;42530;52.240;19.354;2022-12-07T10:13:35;21.30;;;19.02;;
56657;SDS011;42530;52.240;19.354;2022-12-07T10:19:25;24.98;;;22.70;;
56657;SDS011;42530;52.240;19.354;2022-12-07T10:24:26;24.65;;;22.13;;
56657;SDS011;42530;52.240;19.354;2022-12-07T10:26:52;23.63;;;21.38;;
56657;SDS011;42530;52.240;19.354;2022-12-07T10:31:48;26.48;;;23.17;;
56657;SDS011;42530;52.240;19.354;2022-12-07T10:34:23;25.45;;;21.88;;
56657;SDS011;42530;52.240;19.354;2022-12-07T10:39:41;20.88;;;17.42;;
56657;SDS011;42530;52.240;19.354;2022-12-07T10:42:18;19.07;;;17.13;;
56657;SDS011;42530;52.240;19.354;2022-12-07T10:44:47;17.85;;;16.20;;
56657;SDS011;42530;52.240;19.354;2022-12-07T11:03:39;27.00;;;23.15;;
56657;SDS011;42530;52.240;19.354;2022-12-07T11:14:31;29.40;;;22.73;;
56657;SDS011;42530;52.240;19.354;2022-12-07T11:17:17;29.05;;;22.70;;
56657;SDS011;42530;52.240;19.354;2022-12-07T11:20:04;27.15;;;22.50;;
56657;SDS011;42530;52.240;19.354;2022-12-07T11:22:59;23.83;;;21.40;;
56657;SDS011;42530;52.240;19.354;2022-12-07T11:31:17;20.63;;;18.60;;
56657;SDS011;42530;52.240;19.354;2022-12-07T11:39:16;25.02;;;22.52;;
56657;SDS011;42530;52.240;19.354;2022-12-07T11:41:45;29.75;;;24.13;;
56657;SDS011;42530;52.240;19.354;2022-12-07T11:44:31;31.05;;;27.75;;
56657;SDS011;42530;52.240;19.354;2022-12-07T11:47:07;26.35;;;23.58;;
56657;SDS011;42530;52.240;19.354;2022-12-07T11:52:29;29.90;;;26.50;;
56657;SDS011;42530;52.240;19.354;2022-12-07T11:55:06;23.45;;;20.42;;
56657;SDS011;42530;52.240;19.354;2022-12-07T11:57:44;25.42;;;22.63;;
56657;SDS011;42530;52.240;19.354;2022-12-07T12:00:17;19.80;;;17.80;;
56657;SDS011;42530;52.240;19.354;2022-12-07T12:02:53;26.48;;;23.67;;
56657;SDS011;42530;52.240;19.354;2022-12-07T12:05:27;22.27;;;19.90;;
56657;SDS011;42530;52.240;19.354;2022-12-07T12:19:06;33.05;;;27.73;;
56657;SDS011;42530;52.240;19.354;2022-12-07T12:21:45;30.60;;;27.00;;
56657;SDS011;42530;52.240;19.354;2022-12-07T12:24:22;31.35;;;26.65;;
56657;SDS011;42530;52.240;19.354;2022-12-07T12:26:56;30.88;;;27.88;;
56657;SDS011;42530;52.240;19.354;2022-12-07T12:32:11;22.90;;;20.52;;
56657;SDS011;42530;52.240;19.354;2022-12-07T12:35:17;34.28;;;26.33;;
56657;SDS011;42530;52.240;19.354;2022-12-07T12:37:48;30.88;;;26.58;;
56657;SDS011;42530;52.240;19.354;2022-12-07T12:42:54;28.27;;;24.45;;
56657;SDS011;42530;52.240;19.354;2022-12-07T12:45:25;28.77;;;25.85;;
56657;SDS011;42530;52.240;19.354;2022-12-07T12:47:55;25.88;;;23.15;;
56657;SDS011;42530;52.240;19.354;2022-12-07T12:50:29;26.25;;;23.63;;
56657;SDS011;42530;52.240;19.354;2022-12-07T12:58:44;28.20;;;24.40;;
56657;SDS011;42530;52.240;19.354;2022-12-07T13:03:55;27.92;;;25.00;;
56657;SDS011;42530;52.240;19.354;2022-12-07T13:08:52;30.67;;;27.55;;
56657;SDS011;42530;52.240;19.354;2022-12-07T13:11:32;28.50;;;25.58;;
56657;SDS011;42530;52.240;19.354;2022-12-07T13:17:11;29.73;;;24.55;;
56657;SDS011;42530;52.240;19.354;2022-12-07T13:19:57;36.53;;;32.58;;
56657;SDS011;42530;52.240;19.354;2022-12-07T13:27:43;36.47;;;32.15;;
56657;SDS011;42530;52.240;19.354;2022-12-07T13:30:18;36.60;;;32.55;;
56657;SDS011;42530;52.240;19.354;2022-12-07T13:32:52;29.20;;;23.20;;
56657;SDS011;42530;52.240;19.354;2022-12-07T13:35:29;39.25;;;33.42;;
56657;SDS011;42530;52.240;19.354;2022-12-07T13:37:57;35.88;;;32.08;;
56657;SDS011;42530;52.240;19.354;2022-12-07T13:40:23;37.47;;;33.58;;
56657;SDS011;42530;52.240;19.354;2022-12-07T13:42:57;32.45;;;29.08;;
56657;SDS011;42530;52.240;19.354;2022-12-07T13:45:25;35.53;;;32.10;;
56657;SDS011;42530;52.240;19.354;2022-12-07T13:48:21;37.80;;;33.47;;
56657;SDS011;42530;52.240;19.354;2022-12-07T13:50:56;30.25;;;27.08;;
56657;SDS011;42530;52.240;19.354;2022-12-07T13:53:23;37.42;;;33.47;;
56657;SDS011;42530;52.240;19.354;2022-12-07T13:55:49;39.30;;;28.90;;
56657;SDS011;42530;52.240;19.354;2022-12-07T13:58:15;33.58;;;27.33;;
56657;SDS011;42530;52.240;19.354;2022-12-07T14:00:41;36.53;;;29.92;;
56657;SDS011;42530;52.240;19.354;2022-12-07T14:05:36;34.92;;;31.20;;
56657;SDS011;42530;52.240;19.354;2022-12-07T14:08:04;35.97;;;32.13;;
56657;SDS011;42530;52.240;19.354;2022-12-07T14:10:31;34.88;;;31.23;;
56657;SDS011;42530;52.240;19.354;2022-12-07T14:12:58;33.58;;;30.30;;
56657;SDS011;42530;52.240;19.354;2022-12-07T14:15:28;41.97;;;34.58;;
56657;SDS011;42530;52.240;19.354;2022-12-07T14:17:57;42.55;;;37.22;;
56657;SDS011;42530;52.240;19.354;2022-12-07T14:23:00;39.33;;;29.08;;
56657;SDS011;42530;52.240;19.354;2022-12-07T14:26:04;47.60;;;42.55;;
56657;SDS011;42530;52.240;19.354;2022-12-07T14:28:30;53.17;;;45.83;;
56657;SDS011;42530;52.240;19.354;2022-12-07T14:30:58;49.75;;;44.53;;
56657;SDS011;42530;52.240;19.354;2022-12-07T14:33:24;44.60;;;39.60;;
56657;SDS011;42530;52.240;19.354;2022-12-07T14:35:50;44.97;;;40.28;;
56657;SDS011;42530;52.240;19.354;2022-12-07T14:38:20;48.42;;;40.10;;
56657;SDS011;42530;52.240;19.354;2022-12-07T14:40:49;39.42;;;35.08;;
56657;SDS011;42530;52.240;19.354;2022-12-07T14:43:17;47.15;;;41.88;;
56657;SDS011;42530;52.240;19.354;2022-12-07T14:45:43;51.65;;;41.67;;
56657;SDS011;42530;52.240;19.354;2022-12-07T14:48:12;46.22;;;39.60;;
56657;SDS011;42530;52.240;19.354;2022-12-07T14:50:45;41.90;;;36.03;;
56657;SDS011;42530;52.240;19.354;2022-12-07T14:53:27;41.67;;;37.30;;
56657;SDS011;42530;52.240;19.354;2022-12-07T14:55:56;41.60;;;36.83;;
56657;SDS011;42530;52.240;19.354;2022-12-07T14:58:21;42.67;;;38.20;;
56657;SDS011;42530;52.240;19.354;2022-12-07T15:00:47;37.33;;;32.30;;
56657;SDS011;42530;52.240;19.354;2022-12-07T15:03:13;47.55;;;39.00;;
56657;SDS011;42530;52.240;19.354;2022-12-07T15:05:40;40.67;;;36.28;;
56657;SDS011;42530;52.240;19.354;2022-12-07T15:08:06;36.63;;;32.83;;
56657;SDS011;42530;52.240;19.354;2022-12-07T15:10:33;37.42;;;33.40;;
56657;SDS011;42530;52.240;19.354;2022-12-07T15:13:03;39.08;;;33.03;;
56657;SDS011;42530;52.240;19.354;2022-12-07T15:15:49;35.53;;;32.05;;
56657;SDS011;42530;52.240;19.354;2022-12-07T15:18:16;35.85;;;32.03;;
56657;SDS011;42530;52.240;19.354;2022-12-07T15:20:42;32.10;;;28.88;;
56657;SDS011;42530;52.240;19.354;2022-12-07T15:23:07;31.67;;;28.13;;
56657;SDS011;42530;52.240;19.354;2022-12-07T15:25:33;33.40;;;29.65;;
56657;SDS011;42530;52.240;19.354;2022-12-07T15:27:59;36.28;;;31.25;;
56657;SDS011;42530;52.240;19.354;2022-12-07T15:30:24;41.20;;;36.33;;
56657;SDS011;42530;52.240;19.354;2022-12-07T15:32:50;33.22;;;29.75;;
56657;SDS011;42530;52.240;19.354;2022-12-07T15:35:16;44.83;;;39.85;;
56657;SDS011;42530;52.240;19.354;2022-12-07T15:37:42;38.03;;;34.17;;
56657;SDS011;42530;52.240;19.354;2022-12-07T15:40:08;38.88;;;33.45;;
56657;SDS011;42530;52.240;19.354;2022-12-07T15:42:37;33.20;;;29.77;;
56657;SDS011;42530;52.240;19.354;2022-12-07T15:45:03;36.20;;;32.40;;
56657;SDS011;42530;52.240;19.354;2022-12-07T15:47:30;34.88;;;30.15;;
56657;SDS011;42530;52.240;19.354;2022-12-07T15:50:07;37.92;;;34.20;;
56657;SDS011;42530;52.240;19.354;2022-12-07T15:52:34;38.78;;;34.85;;
56657;SDS011;42530;52.240;19.354;2022-12-07T15:55:01;37.50;;;33.83;;
56657;SDS011;42530;52.240;19.354;2022-12-07T15:57:28;34.05;;;30.15;;
56657;SDS011;42530;52.240;19.354;2022-12-07T15:59:54;31.33;;;27.92;;
56657;SDS011;42530;52.240;19.354;2022-12-07T16:02:20;27.10;;;24.42;;
56657;SDS011;42530;52.240;19.354;2022-12-07T16:04:45;30.23;;;27.15;;
56657;SDS011;42530;52.240;19.354;2022-12-07T16:07:11;31.15;;;27.80;;
56657;SDS011;42530;52.240;19.354;2022-12-07T16:09:39;31.70;;;28.33;;